Championnat de France Moyenne Distance (WRE) Haut Valromey (01) - O_HD12

Date : 20/05/2023
Valeur du circuit : 2016263 point × seconde

Place Nom Licence Catégorie Club Temps CN à J-15 Valeur Points Différence Nouveau CN
1 PRADEAU Etienne 32858 H12 6307AR 0:14:18 1913 1641354 2350 +437 2122
2 KOTECKY Jáchym 34405 H12 5906HF 0:14:57 2140 1919580 2248 +108 2215
3 LEMERCIER Louis 27789 H12 5703GE 0:16:24 2082 2048688 2049 -33 2077
4 BAUDSON Jean 35139 H12 5906HF 0:17:01 2008 2050168 1975 -33 2026
5 ARNOUX Thibault 37085 H12 8807GE 0:17:03 2011 2057253 1971 -40 2048
6 LE ROUX Jean 33561 H12 7807IF 0:17:16 1851 1917636 1946 +95 1916
7 OIJID Sara 39993 D12 5402GE 0:17:59 2316 2498964 1869 -447 2227
8 FLAMENT Ethan 32633 H12 4504CE 0:18:05 1407 1526595 1858 +451 1557
9 ROCHE Elana 34881 D12 7311AR 0:18:27 1702 1884114 1821 +119 1759
10 PERRIN Garance 36727 D12 2109BF 0:18:43 1849 2076427 1795 -54 1921
11 FREY Augustin 30783 H12 6803GE 0:19:17 2197 2541929 1743 -454 2389
12 AUNEAU Naoki 36236 H12 6806GE 0:19:24 1822 2120808 1732 -90 1811
13 LE PORS Manon 41251 D12 4709NA 0:20:27 1536 1884672 1643 +107 1630
14 VOIVENEL Martin 42807 H12 1408NM 0:21:19 1742 2228018 1576 -166 1742
15 TESSE Marin 39340 H12 2109BF 0:21:26 1507 1938002 1568 +61 1593
16 JANOD Maëlle 30928 D12 7305AR 0:22:25 1359 1827855 1499 +140 1388
17 RUIZ Léo 32615 H12 8105OC 0:22:52 1400 1920800 1470 +70 1482
18 COURTIN BALESTRAT Jules 36459 H12 8702NA 0:23:13 965 1344245 1447 +482 1278
19 FRANGEUL Malo 41127 H12 2904BR 0:23:16 2096 2926016 1444 -610 1878
20 BARRE Alexis 43316 H12 8404PZ 0:23:18 634 886332 1442 +808 1272
21 TROUSSON Toméo 43066 H12 6208HF 0:23:27 1513 2128791 1433 -80 1503
22 BREGNAC Clément 41810 H12 7305AR 0:23:33 1077 1521801 1427 +350 1311
23 POULAIN Charline 36148 D12 3319NA 0:23:48 1210 1727880 1412 +202 1299
24 GASTINEAU Tiago 37641 H12 7716IF 0:24:28 1594 2339992 1373 -221 1719
25 BENFERHAT Drisse 43367 H12 6804GE 0:24:30 1028 1511160 1372 +344 1455
26 PARZYCH Léo 32686 H12 3323NA 0:24:55 2330 3483350 1349 -981 2119
27 RAVAT Axel 39951 H12 2108BF 0:25:21 0 1326 1446
28 ROBERT Léonie 38138 D12 5716GE 0:25:40 1916 2950640 1309 -607 1916
29 CHOMAUD claire 32630 D12 3408OC 0:26:13 1315 2068495 1282 -33 1358
30 MANOPOULOS Mathilde 26517 D12 0504PZ 0:26:19 950 1500050 1277 +327 1243
31 RULLIER Alexis 42000 H12 4709NA 0:27:28 1241 1223 -18 1322
32 BAILLET Léna 32842 D12 6013HF 0:27:55 1129 1204 +75 1151
33 POGU CHERRIER Margot 34865 D12 2208BR 0:28:48 1380 1167 -213 1336
34 PRINS Adam 32933 H12 6208HF 0:30:02 1399 1119 -280 1407
35 AGNOLY GAUFILLET Diane 32639 D12 3105OC 0:30:02 1081 1119 +38 1108
36 HEYRMAN Lisa 40011 D12 2109BF 0:30:13 1310 1112 -198 1420
37 RONSOUX Lubin 44795 H12 3812AR 0:30:30 1145 1102 +3 1140
38 MOREY Louise 36431 D12 7716IF 0:31:13 1080 1076 -4 1125
39 DUFEY Angéle 38431 D12 6008HF 0:31:40 874 1061 +187 929
40 COLLARD Léo 40038 H12 5116GE 0:32:32 1705 1033 -672 1630
41 ITHURALDE Matilda 32705 D12 6803GE 0:33:32 759 1002 +243 863
42 DEWILDE Daphné 41372 D12 5907HF 0:34:51 1124 964 -160 1184
43 PRIEUR Eva 39252 D12 7305AR 0:34:55 883 962 +79 1104
44 DERLOT Alix 39546 D12 7716IF 0:35:09 0 956 930
45 MARCHAND Fiona 36010 D12 7004BF 0:39:39 820 848 +28 893
46 ESPANET Tao 33206 H12 8405PZ 0:44:09 0 761 643